Flight Track Log - Related Links

Times and Time Zones

All times are in EDT time to prevent confusion due to time zone crossing. See the CTL17 flight status page for this flight to view local times or setup timezone preferences in your user account.

Time Position Orientation Groundspeed Altitude Reporting Facility
EDT Latitude Longitude Course Direction KTS MPH feet Rate Location/Type
Thu 07:23:41 PM 41.5708 -81.6989 336° Northwest 143 165 1,900  Level Cleveland Center
Thu 07:24:42 PM 41.6083 -81.7161 341° North 148 170 2,600 413 Climbing Cleveland Center
Thu 07:26:21 PM 41.6789 -81.7453 343° North 165 190 3,000 239 Climbing Cleveland Center
Thu 07:27:38 PM 41.7308 -81.7739 338° Northwest 159 183 3,300 107 Climbing Cleveland Center
Thu 07:29:09 PM 41.7889 -81.8031 342° North 150 173 3,300 40 Level Cleveland Center
Thu 07:30:09 PM 41.8261 -81.8286 333° Northwest 150 173 3,400  Climbing Cleveland Center
Thu 07:31:09 PM 41.8525 -81.8822 303° West 144 166 3,300 -50 Descending Cleveland Center
Thu 07:32:09 PM 41.8747 -81.9356 299° West 157 181 3,300  Level Cleveland Center
Thu 07:33:09 PM 41.8992 -81.9892 302° West 162 186 3,300  Level Cleveland Center
Thu 07:34:09 PM 41.9214 -82.0400 300° West 167 192 3,300  Level Cleveland Center
Thu 07:35:09 PM 41.9436 -82.0933 299° West 167 192 3,300  Level Cleveland Center
Thu 07:36:09 PM 41.9683 -82.1358 308° West 162 186 3,300  Level Cleveland Center
Thu 07:37:09 PM 41.9883 -82.1894 297° West 162 186 3,300 50 Level Cleveland Center
Thu 07:38:09 PM 42.0083 -82.2375 299° West 162 186 3,400  Climbing Cleveland Center
Thu 07:38:46 PM 42.0225 -82.2769 296° West 154 177 3,300  Descending Cleveland Center
Thu 07:39:29 PM 42.0386 -82.3081 305° West 154 177 3,400  Climbing Cleveland Center
Thu 07:40:09 PM 42.0486 -82.3392 293° West 162 186 3,300 -240 Descending Cleveland Center
Thu 07:41:09 PM 42.0728 -82.3931 301° West 162 186 3,000 -100 Descending Cleveland Center
Thu 07:42:09 PM 42.0908 -82.4439 296° West 162 186 3,100  Climbing Cleveland Center
Thu 07:43:09 PM 42.1086 -82.4975 294° West 162 186 3,000 -50 Descending Cleveland Center
Thu 07:44:09 PM 42.1222 -82.5539 288° West 162 186 3,000  Level Cleveland Center
Thu 07:45:09 PM 42.1358 -82.6133 287° West 157 181 3,000  Level Cleveland Center
Thu 07:46:09 PM 42.1494 -82.6725 287° West 157 181 3,000  Level Cleveland Center
Thu 07:47:09 PM 42.1778 -82.7211 308° West 157 181 3,000 50 Level Cleveland Center
Thu 07:48:09 PM 42.2081 -82.7697 310° West 163 188 3,100 42 Climbing Cleveland Center
Thu 07:49:31 PM 42.2567 -82.8444 311° West 172 198 3,100  Level Cleveland Center
Thu 07:50:32 PM 42.2911 -82.8847 319° Northwest 178 205 3,100  Level Cleveland Center
Thu 07:51:32 PM 42.3256 -82.9394 310° West 179 206 3,100  Level Cleveland Center
Thu 07:52:33 PM 42.3600 -82.9886 313° West 181 208 3,100 49 Level Cleveland Center
Thu 07:53:34 PM 42.3986 -83.0406 315° West 180 207 3,200 49 Climbing Cleveland Center
Thu 07:54:35 PM 42.4308 -83.0897 312° West 185 213 3,200 -52 Level Cleveland Center
Thu 07:55:30 PM 42.4611 -83.1389 310° West 181 208 3,100  Descending Cleveland Center
Thu 07:56:30 PM 42.4806 -83.1986 294° West 179 206 3,200 50 Climbing Cleveland Center
Thu 07:57:31 PM 42.5019 -83.2617 295° West 179 206 3,200 -98 Level Cleveland Center
Thu 07:58:32 PM 42.5233 -83.3272 294° West 183 211 3,000 -98 Descending Cleveland Center
Thu 07:59:33 PM 42.5447 -83.3875 296° West 179 206 3,000  Level Cleveland Center
Thu 08:00:33 PM 42.5664 -83.4475 296° West 175 201 3,000 50 Level Cleveland Center
Thu 08:01:34 PM 42.5728 -83.5156 277° West 169 194 3,100  Climbing Cleveland Center
Thu 08:02:29 PM 42.5733 -83.5747 271° West 173 199 3,000 -32 Descending Cleveland Center
Thu 08:04:00 PM 42.6155 -83.5044 51° Northeast  Level Estimated
Thu 08:04:42 PM 42.6294 -83.6678 51° Northeast 164 189 3,000  Level Cleveland Center
Thu 08:05:37 PM 42.6536 -83.6239 53° Northeast 158 182 3,200 -155 Climbing Cleveland Center
Thu 08:06:38 PM 42.6614 -83.5647 80° East 157 181 2,700 -492 Descending Cleveland Center
Thu 08:07:39 PM 42.6625 -83.5142 88° East 111 128 2,200 -492 Descending Cleveland Center

Login

Don't have an account? Register now (free) for customized features, flight alerts, and more!